createdAt,value
2018-06-28T00:00:48.497Z,2.20
2018-06-28T00:03:17.321Z,2.50
2018-06-28T00:05:46.057Z,2.53
2018-06-28T00:08:14.806Z,2.40
2018-06-28T00:10:43.648Z,2.20
2018-06-28T00:13:12.363Z,2.60
2018-06-28T00:15:41.120Z,2.40
2018-06-28T00:18:09.879Z,2.40
2018-06-28T00:20:38.593Z,2.50
2018-06-28T00:23:07.336Z,2.53
2018-06-28T00:25:35.856Z,2.47
2018-06-28T00:28:04.967Z,2.50
2018-06-28T00:30:33.682Z,2.33
2018-06-28T00:33:02.468Z,2.40
2018-06-28T00:35:31.248Z,2.67
2018-06-28T00:37:59.963Z,2.80
2018-06-28T00:40:28.859Z,2.80
2018-06-28T00:42:57.614Z,2.63
2018-06-28T00:45:26.367Z,2.50
2018-06-28T00:47:55.167Z,2.60
2018-06-28T00:50:23.940Z,2.63
2018-06-28T00:52:52.698Z,2.77
2018-06-28T00:55:21.460Z,2.70
2018-06-28T00:57:50.187Z,2.80
2018-06-28T01:00:19.310Z,2.70
2018-06-28T01:02:48.160Z,2.47
2018-06-28T01:05:16.952Z,2.80
2018-06-28T01:07:45.799Z,2.70
2018-06-28T01:10:14.499Z,2.77
2018-06-28T01:12:43.243Z,2.80
2018-06-28T01:15:12.119Z,2.90
2018-06-28T01:17:40.920Z,2.60
2018-06-28T01:20:09.695Z,2.90
2018-06-28T01:22:38.519Z,2.90
2018-06-28T01:25:07.345Z,2.70
2018-06-28T01:27:36.130Z,2.97
2018-06-28T01:30:05.807Z,3.13
2018-06-28T01:32:34.556Z,2.90
2018-06-28T01:35:03.453Z,2.77
2018-06-28T01:37:32.491Z,2.80
2018-06-28T01:40:01.206Z,2.90
2018-06-28T01:42:42.761Z,2.90
2018-06-28T01:45:11.543Z,2.80
2018-06-28T01:47:40.907Z,3.30
2018-06-28T01:50:10.434Z,3.20
2018-06-28T01:52:39.853Z,3.13
2018-06-28T01:55:09.674Z,3.30
2018-06-28T01:57:39.263Z,2.90
2018-06-28T02:00:08.764Z,3.10
2018-06-28T02:02:38.538Z,3.27
2018-06-28T02:05:08.267Z,2.97
2018-06-28T02:07:37.690Z,3.30
2018-06-28T02:10:07.331Z,3.30
2018-06-28T02:12:36.696Z,2.97
2018-06-28T02:15:06.818Z,3.20
2018-06-28T02:17:36.166Z,3.30
2018-06-28T02:20:05.887Z,3.00
2018-06-28T02:22:35.826Z,3.00
2018-06-28T02:25:05.896Z,2.90
2018-06-28T02:27:35.820Z,3.00
2018-06-28T02:30:05.301Z,2.80
2018-06-28T02:32:34.359Z,3.00
2018-06-28T02:35:04.302Z,2.90
2018-06-28T02:37:33.924Z,2.70
2018-06-28T02:40:03.551Z,2.80
2018-06-28T02:42:33.477Z,2.80
2018-06-28T02:45:02.763Z,2.50
2018-06-28T02:47:32.651Z,2.63
2018-06-28T02:50:02.420Z,2.60
2018-06-28T02:52:32.374Z,2.90
2018-06-28T02:55:02.088Z,2.93
2018-06-28T02:57:31.627Z,2.43
2018-06-28T03:00:01.420Z,2.57
2018-06-28T03:02:31.334Z,2.53
2018-06-28T03:05:01.360Z,2.63
2018-06-28T03:07:31.450Z,2.40
2018-06-28T03:10:00.202Z,2.57
2018-06-28T03:12:28.955Z,2.40
2018-06-28T03:14:57.745Z,2.30
2018-06-28T03:17:26.502Z,2.33
2018-06-28T03:19:55.420Z,2.37
2018-06-28T03:22:24.228Z,2.30
2018-06-28T03:24:52.942Z,2.30
2018-06-28T03:27:21.633Z,2.12
2018-06-28T03:29:50.369Z,2.27
2018-06-28T03:32:18.850Z,2.20
2018-06-28T03:34:47.559Z,2.10
2018-06-28T03:37:16.283Z,2.10
2018-06-28T03:39:45.060Z,2.15
2018-06-28T03:42:13.835Z,2.08
2018-06-28T03:44:42.598Z,2.00
2018-06-28T03:47:11.337Z,2.00
2018-06-28T03:49:40.072Z,2.40
2018-06-28T03:52:08.806Z,2.25
2018-06-28T03:54:37.572Z,2.10
2018-06-28T03:57:06.362Z,2.05
2018-06-28T03:59:35.512Z,1.90
2018-06-28T04:02:04.283Z,1.70
2018-06-28T04:04:33.018Z,2.10
2018-06-28T04:07:01.944Z,1.70
2018-06-28T04:09:30.684Z,1.80
2018-06-28T04:11:59.432Z,2.00
2018-06-28T04:14:28.145Z,1.90
2018-06-28T04:16:56.980Z,1.60
2018-06-28T04:19:25.684Z,1.75
2018-06-28T04:21:54.413Z,1.70
2018-06-28T04:24:23.116Z,1.60
2018-06-28T04:26:51.923Z,1.77
2018-06-28T04:29:20.641Z,1.70
2018-06-28T04:31:49.392Z,1.70
2018-06-28T04:34:18.343Z,1.72
2018-06-28T04:36:47.082Z,1.70
2018-06-28T04:39:15.774Z,1.65
2018-06-28T04:41:44.492Z,1.70
2018-06-28T04:44:13.170Z,1.70
2018-06-28T04:46:41.926Z,1.95
2018-06-28T04:49:10.353Z,1.60
2018-06-28T04:51:39.136Z,1.60
2018-06-28T04:54:07.892Z,1.60
2018-06-28T04:56:36.581Z,1.50
2018-06-28T04:59:05.348Z,1.62
2018-06-28T05:01:34.162Z,1.50
2018-06-28T05:04:02.895Z,1.52
2018-06-28T05:06:31.624Z,1.50
2018-06-28T05:09:00.371Z,1.40
2018-06-28T05:11:29.126Z,1.50
2018-06-28T05:13:58.141Z,1.60
2018-06-28T05:16:26.870Z,1.50
2018-06-28T05:18:55.570Z,1.57
2018-06-28T05:21:24.309Z,1.47
2018-06-28T05:23:53.080Z,1.70
2018-06-28T05:26:21.814Z,1.65
2018-06-28T05:28:50.585Z,1.90
2018-06-28T05:31:19.289Z,1.87
2018-06-28T05:33:48.012Z,1.62
2018-06-28T05:36:16.773Z,1.30
2018-06-28T05:38:45.485Z,1.47
2018-06-28T05:41:14.311Z,1.50
2018-06-28T05:43:44.035Z,1.50
2018-06-28T05:46:12.761Z,1.55
2018-06-28T05:48:41.543Z,1.50
2018-06-28T05:51:10.267Z,1.70
2018-06-28T05:53:39.022Z,1.65
2018-06-28T05:56:07.772Z,1.52
2018-06-28T05:58:36.497Z,1.52
2018-06-28T06:01:05.283Z,1.60
2018-06-28T06:03:34.068Z,1.42
2018-06-28T06:06:02.877Z,1.50
2018-06-28T06:08:31.691Z,1.60
2018-06-28T06:11:00.412Z,1.70
2018-06-28T06:13:29.181Z,1.70
2018-06-28T06:15:57.994Z,1.80
2018-06-28T06:18:26.766Z,1.80
2018-06-28T06:20:55.768Z,1.60
2018-06-28T06:23:24.663Z,1.67
2018-06-28T06:25:53.418Z,1.50
2018-06-28T06:28:22.284Z,1.70
2018-06-28T06:30:51.107Z,1.60
2018-06-28T06:33:19.841Z,1.70
2018-06-28T06:35:48.774Z,1.67
2018-06-28T06:38:17.398Z,1.90
2018-06-28T06:40:46.436Z,1.90
2018-06-28T06:43:15.143Z,1.70
2018-06-28T06:45:44.005Z,1.70
2018-06-28T06:48:12.737Z,1.93
2018-06-28T06:50:41.480Z,1.53
2018-06-28T06:53:10.283Z,1.50
2018-06-28T06:55:39.012Z,1.80
2018-06-28T06:58:07.872Z,1.67
2018-06-28T07:00:36.677Z,1.70
2018-06-28T07:03:05.673Z,1.50
2018-06-28T07:05:34.435Z,1.50
2018-06-28T07:08:03.379Z,1.50
2018-06-28T07:10:32.113Z,1.70
2018-06-28T07:13:00.845Z,1.63
2018-06-28T07:15:29.563Z,1.50
2018-06-28T07:17:58.417Z,1.60
2018-06-28T07:20:27.249Z,1.50
2018-06-28T07:22:56.108Z,1.80
2018-06-28T07:25:24.812Z,1.77
2018-06-28T07:27:53.568Z,1.83
2018-06-28T07:30:22.375Z,1.50
2018-06-28T07:32:51.153Z,1.70
2018-06-28T07:35:19.892Z,1.90
2018-06-28T07:37:48.885Z,1.70
2018-06-28T07:40:17.645Z,1.50
2018-06-28T07:42:46.444Z,1.47
2018-06-28T07:45:15.186Z,1.60
2018-06-28T07:47:44.019Z,1.70
2018-06-28T07:50:12.805Z,1.60
2018-06-28T07:52:41.569Z,1.57
2018-06-28T07:55:10.305Z,1.57
2018-06-28T07:57:39.060Z,1.90
2018-06-28T08:00:08.698Z,1.60
2018-06-28T08:02:38.204Z,1.70
2018-06-28T08:05:07.082Z,1.70
2018-06-28T08:07:35.812Z,1.80
2018-06-28T08:10:04.728Z,1.83
2018-06-28T08:12:33.417Z,1.97
2018-06-28T08:15:02.176Z,1.83
2018-06-28T08:17:31.159Z,1.80
2018-06-28T08:20:00.045Z,1.90
2018-06-28T08:22:28.790Z,1.73
2018-06-28T08:24:57.625Z,1.80
2018-06-28T08:27:26.371Z,1.70
2018-06-28T08:29:55.389Z,1.60
2018-06-28T08:32:24.120Z,1.73
2018-06-28T08:34:52.864Z,1.93
2018-06-28T08:37:21.699Z,2.07
2018-06-28T08:39:50.442Z,1.80
2018-06-28T08:42:19.285Z,1.80
2018-06-28T08:44:48.097Z,1.90
2018-06-28T08:47:16.866Z,1.97
2018-06-28T08:49:45.743Z,1.73
2018-06-28T08:52:14.484Z,2.07
2018-06-28T08:54:43.233Z,1.90
2018-06-28T08:57:11.992Z,1.80
2018-06-28T08:59:40.830Z,1.83
2018-06-28T09:02:09.556Z,1.80
2018-06-28T09:04:38.315Z,1.80
2018-06-28T09:07:07.083Z,2.00
2018-06-28T09:09:36.960Z,1.80
2018-06-28T09:12:06.862Z,1.80
2018-06-28T09:14:36.324Z,1.80
2018-06-28T09:17:06.277Z,1.70
2018-06-28T09:19:35.796Z,1.87
2018-06-28T09:22:05.537Z,1.80
2018-06-28T09:24:35.664Z,1.60
2018-06-28T09:27:05.818Z,1.50
2018-06-28T09:29:35.411Z,2.00
2018-06-28T09:32:05.622Z,1.60
2018-06-28T09:34:35.676Z,1.87
2018-06-28T09:37:05.474Z,1.70
2018-06-28T09:39:35.104Z,1.60
2018-06-28T09:42:05.009Z,1.80
2018-06-28T09:44:34.915Z,2.00
2018-06-28T09:47:04.504Z,2.20
2018-06-28T09:49:34.184Z,1.80
2018-06-28T09:52:04.419Z,1.80
2018-06-28T09:54:33.154Z,1.37
2018-06-28T09:57:02.022Z,1.60
2018-06-28T09:59:30.728Z,1.60
2018-06-28T10:01:59.493Z,1.70
2018-06-28T10:04:28.321Z,1.83
2018-06-28T10:06:57.085Z,1.70
2018-06-28T10:09:27.069Z,1.80
2018-06-28T10:11:56.706Z,1.90
2018-06-28T10:14:25.433Z,1.80
2018-06-28T10:16:54.169Z,1.70
2018-06-28T10:19:22.917Z,1.50
2018-06-28T10:21:51.626Z,1.77
2018-06-28T10:24:20.679Z,1.43
2018-06-28T10:26:49.404Z,1.90
2018-06-28T10:29:18.155Z,1.63
2018-06-28T10:31:46.991Z,1.70
2018-06-28T10:34:15.728Z,1.40
2018-06-28T10:36:44.512Z,1.67
2018-06-28T10:39:13.195Z,1.50
2018-06-28T10:41:43.047Z,1.63
2018-06-28T10:44:13.491Z,1.80
2018-06-28T10:46:43.549Z,1.50
2018-06-28T10:50:42.366Z,1.57
2018-06-28T10:53:12.143Z,1.77
2018-06-28T10:55:42.014Z,1.70
2018-06-28T10:58:11.269Z,1.70
2018-06-28T11:00:41.203Z,1.50
2018-06-28T11:03:11.115Z,1.60
2018-06-28T11:05:40.720Z,1.70
2018-06-28T11:08:10.235Z,1.90
2018-06-28T11:10:39.611Z,1.70
2018-06-28T11:13:09.111Z,1.50
2018-06-28T11:15:38.645Z,1.60
2018-06-28T11:18:08.237Z,1.73
2018-06-28T11:20:37.612Z,1.60
2018-06-28T11:23:07.111Z,1.80
2018-06-28T11:25:36.629Z,1.60
2018-06-28T11:28:06.271Z,1.70
2018-06-28T11:30:35.780Z,1.73
2018-06-28T11:33:04.565Z,1.70
2018-06-28T11:35:33.285Z,1.87
2018-06-28T11:38:03.347Z,1.77
2018-06-28T11:40:33.427Z,1.77
2018-06-28T11:43:03.427Z,1.70
2018-06-28T11:45:33.656Z,1.80
2018-06-28T11:48:03.280Z,1.73
2018-06-28T11:50:33.494Z,1.63
2018-06-28T11:53:03.264Z,1.60
2018-06-28T11:55:33.113Z,1.73
2018-06-28T11:58:02.673Z,1.80
2018-06-28T12:00:32.159Z,2.00
2018-06-28T12:03:01.678Z,1.70
2018-06-28T12:05:31.837Z,1.93
2018-06-28T12:08:01.498Z,1.80
2018-06-28T12:10:31.456Z,1.70
2018-06-28T12:13:00.179Z,1.70
2018-06-28T12:15:29.017Z,1.70
2018-06-28T12:17:59.136Z,1.60
2018-06-28T12:20:28.961Z,1.60
2018-06-28T12:22:58.648Z,1.70
2018-06-28T12:25:28.082Z,1.83
2018-06-28T12:27:57.564Z,1.87
2018-06-28T12:30:26.615Z,1.77
2018-06-28T12:32:56.132Z,1.53
2018-06-28T12:35:25.684Z,1.50
2018-06-28T12:37:55.168Z,1.77
2018-06-28T12:40:25.099Z,1.90
2018-06-28T12:42:55.149Z,1.67
2018-06-28T12:45:25.166Z,1.70
2018-06-28T12:48:00.348Z,1.73
2018-06-28T12:50:30.061Z,1.63
2018-06-28T12:53:03.719Z,1.50
2018-06-28T12:56:48.186Z,1.70
2018-06-28T12:59:20.626Z,1.80
2018-06-28T13:01:49.947Z,1.87
2018-06-28T13:04:19.648Z,1.80
2018-06-28T13:06:49.011Z,1.70
2018-06-28T13:09:18.949Z,1.67
2018-06-28T13:11:48.513Z,1.73
2018-06-28T13:14:17.985Z,1.70
2018-06-28T13:16:47.514Z,1.70
2018-06-28T13:19:16.944Z,1.80
2018-06-28T13:21:46.438Z,2.00
2018-06-28T13:24:15.953Z,1.80
2018-06-28T13:26:45.506Z,1.90
2018-06-28T13:29:14.281Z,1.50
2018-06-28T13:31:43.025Z,1.90
2018-06-28T13:34:11.761Z,1.80
2018-06-28T13:36:40.499Z,1.60
2018-06-28T13:39:10.556Z,2.03
2018-06-28T13:41:40.644Z,2.00
2018-06-28T13:44:10.390Z,1.60
2018-06-28T13:46:39.136Z,1.77
2018-06-28T13:49:07.920Z,2.13
2018-06-28T13:51:38.119Z,1.80
2018-06-28T13:54:07.557Z,2.10
2018-06-28T13:56:36.491Z,2.03
2018-06-28T13:59:06.444Z,1.80
2018-06-28T14:01:36.401Z,1.70
2018-06-28T14:04:06.157Z,1.70
2018-06-28T14:06:35.793Z,1.77
2018-06-28T14:09:07.690Z,2.00
2018-06-28T14:11:37.447Z,1.90
2018-06-28T14:14:07.063Z,1.80
2018-06-28T14:16:36.818Z,2.00
2018-06-28T14:19:06.313Z,1.93
2018-06-28T14:21:35.791Z,1.97
2018-06-28T14:24:04.549Z,2.00
2018-06-28T14:26:34.306Z,1.90
2018-06-28T14:29:04.283Z,1.80
2018-06-28T14:31:34.086Z,1.80
2018-06-28T14:34:04.037Z,1.73
2018-06-28T14:36:34.196Z,1.80
2018-06-28T14:39:04.558Z,1.60
2018-06-28T14:41:34.662Z,1.87
2018-06-28T14:44:04.521Z,2.00
2018-06-28T14:46:34.506Z,1.90
2018-06-28T14:49:04.162Z,1.80
2018-06-28T14:51:33.569Z,1.90
2018-06-28T14:54:03.168Z,1.93
2018-06-28T14:56:32.588Z,1.70
2018-06-28T14:59:02.063Z,2.00
2018-06-28T15:01:31.614Z,1.70
2018-06-28T15:04:01.146Z,1.90
2018-06-28T15:06:30.591Z,1.90
2018-06-28T15:09:00.529Z,1.90
2018-06-28T15:11:30.469Z,1.90
2018-06-28T15:14:00.354Z,1.80
2018-06-28T15:16:30.084Z,2.00
2018-06-28T15:18:59.777Z,2.20
2018-06-28T15:21:29.739Z,1.60
2018-06-28T15:23:59.606Z,1.90
2018-06-28T15:26:29.089Z,2.00
2018-06-28T15:30:02.148Z,1.77
2018-06-28T15:32:31.604Z,1.70
2018-06-28T15:35:01.082Z,1.80
2018-06-28T15:37:30.690Z,1.80
2018-06-28T15:40:00.114Z,1.70
2018-06-28T15:42:30.091Z,1.87
2018-06-28T15:44:59.976Z,1.80
2018-06-28T15:47:30.148Z,2.00
2018-06-28T15:50:00.259Z,1.80
2018-06-28T15:52:30.007Z,1.70
2018-06-28T15:55:00.094Z,1.70
2018-06-28T15:57:30.060Z,2.00
2018-06-28T15:59:59.703Z,2.00
2018-06-28T16:02:29.659Z,1.90
2018-06-28T16:04:59.495Z,2.10
2018-06-28T16:07:30.297Z,2.00
2018-06-28T16:09:59.898Z,2.13
2018-06-28T16:12:29.440Z,1.87
2018-06-28T16:14:58.919Z,2.00
2018-06-28T16:17:27.647Z,1.70
2018-06-28T16:19:57.491Z,1.70
2018-06-28T16:22:27.848Z,1.70
2018-06-28T16:25:00.987Z,1.70
2018-06-28T16:27:30.036Z,1.80
2018-06-28T16:29:59.632Z,1.77
2018-06-28T16:32:28.373Z,1.60
2018-06-28T16:34:58.246Z,1.70
2018-06-28T16:37:27.110Z,1.90
2018-06-28T16:39:55.817Z,1.90
2018-06-28T16:42:25.805Z,1.77
2018-06-28T16:44:55.456Z,1.63
2018-06-28T16:47:25.367Z,1.90
2018-06-28T16:49:55.336Z,1.80
2018-06-28T16:52:24.164Z,1.70
2018-06-28T16:54:54.154Z,1.80
2018-06-28T16:57:22.902Z,1.80
2018-06-28T16:59:51.712Z,1.90
2018-06-28T17:02:20.471Z,1.70
2018-06-28T17:04:49.243Z,2.00
2018-06-28T17:07:19.283Z,1.70
2018-06-28T17:09:48.156Z,1.50
2018-06-28T17:12:17.031Z,2.03
2018-06-28T17:14:45.770Z,1.70
2018-06-28T17:17:14.522Z,1.90
2018-06-28T17:19:43.383Z,2.00
2018-06-28T17:22:12.150Z,1.80
2018-06-28T17:24:40.852Z,1.70
2018-06-28T17:27:10.767Z,1.80
2018-06-28T17:29:40.930Z,1.90
2018-06-28T17:32:09.770Z,1.90
2018-06-28T17:34:38.548Z,1.93
2018-06-28T17:37:07.301Z,1.77
2018-06-28T17:39:36.890Z,2.10
2018-06-28T17:42:05.627Z,1.77
2018-06-28T17:44:34.462Z,1.90
2018-06-28T17:47:04.523Z,2.77
2018-06-28T17:49:33.318Z,2.97
2018-06-28T17:52:02.137Z,2.70
2018-06-28T17:54:30.894Z,2.70
2018-06-28T17:57:00.708Z,2.30
2018-06-28T17:59:29.449Z,2.40
2018-06-28T18:01:58.177Z,2.20
2018-06-28T18:04:26.924Z,2.40
2018-06-28T18:06:56.685Z,2.47
2018-06-28T18:09:25.653Z,2.17
2018-06-28T18:11:54.398Z,2.00
2018-06-28T18:14:23.245Z,1.83
2018-06-28T18:16:51.960Z,1.90
2018-06-28T18:19:20.689Z,1.97
2018-06-28T18:21:49.444Z,2.20
2018-06-28T18:24:18.199Z,1.83
2018-06-28T18:26:46.990Z,1.80
2018-06-28T18:29:16.001Z,1.97
2018-06-28T18:31:45.020Z,1.90
2018-06-28T18:34:14.437Z,1.90
2018-06-28T18:36:43.206Z,2.10
2018-06-28T18:39:11.947Z,1.70
2018-06-28T18:41:40.837Z,2.00
2018-06-28T18:44:09.600Z,2.00
2018-06-28T18:46:39.079Z,1.87
2018-06-28T18:49:07.808Z,2.00
2018-06-28T18:51:36.612Z,1.80
2018-06-28T18:54:05.556Z,1.87
2018-06-28T18:56:35.459Z,1.67
2018-06-28T18:59:04.334Z,2.10
2018-06-28T19:01:33.148Z,2.37
2018-06-28T19:04:01.837Z,2.30
2018-06-28T19:06:30.709Z,2.07
2018-06-28T19:08:59.464Z,2.30
2018-06-28T19:11:28.259Z,2.20
2018-06-28T19:14:02.594Z,2.20
2018-06-28T19:16:36.860Z,2.47
2018-06-28T19:19:05.765Z,2.63
2018-06-28T19:21:39.880Z,3.27
2018-06-28T19:24:08.611Z,3.13
2018-06-28T19:26:37.367Z,3.27
2018-06-28T19:29:11.685Z,3.47
2018-06-28T19:31:45.985Z,2.90
2018-06-28T19:34:14.900Z,3.00
2018-06-28T19:36:43.640Z,3.00
2018-06-28T19:39:17.943Z,3.10
2018-06-28T19:41:52.944Z,3.40
2018-06-28T19:44:21.724Z,2.93
2018-06-28T19:46:50.397Z,3.20
2018-06-28T19:49:24.414Z,2.83
2018-06-28T19:51:58.513Z,2.77
2018-06-28T19:54:27.264Z,2.70
2018-06-28T19:56:56.034Z,2.97
2018-06-28T19:59:24.751Z,2.93
2018-06-28T20:01:58.983Z,2.87
2018-06-28T20:04:33.277Z,2.30
2018-06-28T20:07:03.313Z,2.30
2018-06-28T20:09:32.089Z,2.60
2018-06-28T20:12:00.813Z,2.47
2018-06-28T20:14:35.238Z,2.60
2018-06-28T20:17:09.553Z,2.50
2018-06-28T20:20:47.975Z,2.53
2018-06-28T20:23:16.704Z,2.40
2018-06-28T20:25:45.564Z,2.33
2018-06-28T20:28:19.637Z,2.43
2018-06-28T20:30:53.923Z,2.13
2018-06-28T20:33:28.134Z,2.60
2018-06-28T20:35:58.174Z,2.33
2018-06-28T20:38:26.887Z,2.17
2018-06-28T20:40:55.537Z,2.10
2018-06-28T20:43:24.229Z,2.10
2018-06-28T20:45:52.897Z,1.77
2018-06-28T20:48:21.629Z,1.90
2018-06-28T20:50:51.192Z,1.50
2018-06-28T20:53:19.943Z,1.50
2018-06-28T20:55:49.626Z,1.70
2018-06-28T20:58:19.519Z,1.67
2018-06-28T21:00:48.236Z,1.33
2018-06-28T21:03:18.187Z,1.50
2018-06-28T21:05:46.867Z,1.40
2018-06-28T21:08:15.550Z,1.43
2018-06-28T21:10:44.229Z,1.60
2018-06-28T21:13:12.895Z,1.37
2018-06-28T21:15:41.629Z,1.33
2018-06-28T21:18:11.364Z,1.20
2018-06-28T21:20:39.992Z,1.30
2018-06-28T21:23:08.667Z,1.20
2018-06-28T21:25:37.967Z,1.30
2018-06-28T21:28:06.637Z,1.23
2018-06-28T21:30:35.323Z,1.30
2018-06-28T21:33:04.004Z,1.20
2018-06-28T21:35:33.760Z,1.00
2018-06-28T21:38:02.424Z,1.20
2018-06-28T21:40:31.109Z,1.20
2018-06-28T21:43:00.908Z,1.03
2018-06-28T21:45:29.618Z,1.10
2018-06-28T21:47:58.287Z,1.03
2018-06-28T21:50:26.937Z,1.20
2018-06-28T21:52:55.648Z,1.20
2018-06-28T21:55:25.494Z,1.20
2018-06-28T21:57:55.226Z,1.00
2018-06-28T22:00:32.985Z,1.00
2018-06-28T22:03:05.928Z,1.00
2018-06-28T22:05:34.871Z,1.00
2018-06-28T22:08:04.286Z,1.00
2018-06-28T22:10:33.107Z,0.90
2018-06-28T22:13:01.804Z,1.07
2018-06-28T22:15:31.422Z,0.80
2018-06-28T22:18:01.354Z,1.00
2018-06-28T22:20:30.827Z,1.20
2018-06-28T22:22:59.514Z,1.00
2018-06-28T22:25:29.289Z,1.00
2018-06-28T22:27:58.039Z,0.90
2018-06-28T22:30:26.761Z,1.30
2018-06-28T22:32:55.395Z,1.10
2018-06-28T22:35:24.046Z,1.10
2018-06-28T22:37:52.708Z,1.10
2018-06-28T22:40:22.270Z,1.10
2018-06-28T22:42:50.925Z,1.10
2018-06-28T22:45:19.600Z,1.03
2018-06-28T22:47:48.285Z,1.07
2018-06-28T22:50:16.982Z,1.20
2018-06-28T22:52:45.678Z,1.10
2018-06-28T22:55:14.372Z,1.10
2018-06-28T22:57:43.152Z,1.10
2018-06-28T23:00:12.731Z,1.17
2018-06-28T23:02:41.336Z,1.00
2018-06-28T23:05:10.101Z,1.10
2018-06-28T23:07:39.875Z,1.13
2018-06-28T23:10:08.627Z,1.20
2018-06-28T23:12:37.379Z,1.00
2018-06-28T23:15:07.167Z,1.10
2018-06-28T23:17:35.861Z,1.40
2018-06-28T23:20:04.877Z,1.20
2018-06-28T23:22:51.896Z,1.10
2018-06-28T23:25:21.079Z,1.10
2018-06-28T23:27:50.325Z,1.20
2018-06-28T23:30:20.107Z,1.20
2018-06-28T23:32:48.846Z,1.30
2018-06-28T23:35:17.607Z,1.13
2018-06-28T23:37:46.309Z,1.10
2018-06-28T23:40:15.139Z,1.00
2018-06-28T23:42:43.961Z,1.00
2018-06-28T23:45:12.746Z,0.80
2018-06-28T23:47:41.531Z,0.80
2018-06-28T23:50:10.998Z,0.90
2018-06-28T23:52:39.668Z,1.00
2018-06-28T23:55:09.428Z,0.80
2018-06-28T23:57:38.060Z,0.60
